createdAt,value
2017-12-23T00:01:44.079Z,19.23
2017-12-23T00:04:13.005Z,20.23
2017-12-23T00:06:41.188Z,20.20
2017-12-23T00:09:09.352Z,17.77
2017-12-23T00:11:37.516Z,19.33
2017-12-23T00:14:05.696Z,18.07
2017-12-23T00:16:33.850Z,20.20
2017-12-23T00:19:02.036Z,17.87
2017-12-23T00:21:31.237Z,18.50
2017-12-23T00:23:59.668Z,19.07
2017-12-23T00:26:27.957Z,18.47
2017-12-23T00:28:56.138Z,18.83
2017-12-23T00:31:24.584Z,17.60
2017-12-23T00:33:53.730Z,18.03
2017-12-23T00:36:22.316Z,17.53
2017-12-23T00:38:51.425Z,18.40
2017-12-23T00:41:19.589Z,16.43
2017-12-23T00:43:47.777Z,17.00
2017-12-23T00:46:15.995Z,18.00
2017-12-23T00:48:44.362Z,17.37
2017-12-23T00:51:12.530Z,18.17
2017-12-23T00:53:40.703Z,16.57
2017-12-23T00:56:08.900Z,17.93
2017-12-23T00:58:37.826Z,17.83
2017-12-23T01:01:05.978Z,17.23
2017-12-23T01:03:34.973Z,17.03
2017-12-23T01:06:03.910Z,17.47
2017-12-23T01:08:32.208Z,16.47
2017-12-23T01:11:00.407Z,16.50
2017-12-23T01:13:28.553Z,16.43
2017-12-23T01:15:56.721Z,16.07
2017-12-23T01:18:24.892Z,14.67
2017-12-23T01:20:53.065Z,15.33
2017-12-23T01:23:21.214Z,14.03
2017-12-23T01:25:50.175Z,13.93
2017-12-23T01:28:18.342Z,13.63
2017-12-23T01:30:46.513Z,13.60
2017-12-23T01:33:14.718Z,13.37
2017-12-23T01:35:43.661Z,12.30
2017-12-23T01:38:11.839Z,11.83
2017-12-23T01:40:40.010Z,12.40
2017-12-23T01:43:08.192Z,12.43
2017-12-23T01:45:36.363Z,11.00
2017-12-23T01:48:04.719Z,13.50
2017-12-23T01:50:32.999Z,11.23
2017-12-23T01:53:01.177Z,12.80
2017-12-23T01:55:29.353Z,11.37
2017-12-23T01:57:57.532Z,11.63
2017-12-23T02:00:25.703Z,12.07
2017-12-23T02:02:53.905Z,11.17
2017-12-23T02:05:22.055Z,12.23
2017-12-23T02:07:50.219Z,12.13
2017-12-23T02:10:18.376Z,12.37
2017-12-23T02:12:47.343Z,10.70
2017-12-23T02:15:15.490Z,10.97
2017-12-23T02:17:43.670Z,11.53
2017-12-23T02:20:11.844Z,10.00
2017-12-23T02:22:40.065Z,11.00
2017-12-23T02:25:08.990Z,11.00
2017-12-23T02:27:37.180Z,11.47
2017-12-23T02:30:05.344Z,11.77
2017-12-23T02:32:33.513Z,11.67
2017-12-23T02:35:01.682Z,11.73
2017-12-23T02:37:29.838Z,11.17
2017-12-23T02:39:58.059Z,11.33
2017-12-23T02:42:26.384Z,11.93
2017-12-23T02:44:54.534Z,11.13
2017-12-23T02:47:22.836Z,12.27
2017-12-23T02:49:51.002Z,11.93
2017-12-23T02:52:19.940Z,11.87
2017-12-23T02:54:48.196Z,10.93
2017-12-23T02:57:16.359Z,12.20
2017-12-23T02:59:44.533Z,11.40
2017-12-23T03:02:12.700Z,12.27
2017-12-23T03:04:41.637Z,11.13
2017-12-23T03:07:09.807Z,11.37
2017-12-23T03:09:37.970Z,12.03
2017-12-23T03:12:06.142Z,11.43
2017-12-23T03:14:34.305Z,11.73
2017-12-23T03:17:02.548Z,10.67
2017-12-23T03:19:31.487Z,12.20
2017-12-23T03:21:59.661Z,13.30
2017-12-23T03:24:28.032Z,11.40
2017-12-23T03:26:56.187Z,11.40
2017-12-23T03:29:24.644Z,13.23
2017-12-23T03:31:53.611Z,13.03
2017-12-23T03:34:21.757Z,11.87
2017-12-23T03:36:49.932Z,11.93
2017-12-23T03:39:18.109Z,12.27
2017-12-23T03:41:46.257Z,13.03
2017-12-23T03:44:14.455Z,12.03
2017-12-23T03:46:42.629Z,12.90
2017-12-23T03:49:10.787Z,12.27
2017-12-23T03:51:38.937Z,11.57
2017-12-23T03:54:07.870Z,12.47
2017-12-23T03:56:36.040Z,13.30
2017-12-23T03:59:04.204Z,13.30
2017-12-23T04:01:32.476Z,12.77
2017-12-23T04:04:00.706Z,12.40
2017-12-23T04:06:29.080Z,12.90
2017-12-23T04:08:58.008Z,12.73
2017-12-23T04:11:26.940Z,12.83
2017-12-23T04:13:55.116Z,12.47
2017-12-23T04:16:23.308Z,11.17
2017-12-23T04:18:51.663Z,12.60
2017-12-23T04:21:19.843Z,12.37
2017-12-23T04:23:48.004Z,11.33
2017-12-23T04:26:16.180Z,12.37
2017-12-23T04:28:44.358Z,11.07
2017-12-23T04:31:12.539Z,11.17
2017-12-23T04:33:40.711Z,9.93
2017-12-23T04:36:08.883Z,10.30
2017-12-23T04:38:37.051Z,10.90
2017-12-23T04:41:05.193Z,10.43
2017-12-23T04:43:33.367Z,9.70
2017-12-23T04:46:01.525Z,10.23
2017-12-23T04:48:30.485Z,10.53
2017-12-23T04:50:58.643Z,9.53
2017-12-23T04:53:26.858Z,10.30
2017-12-23T04:55:55.824Z,9.50
2017-12-23T04:58:24.147Z,10.57
2017-12-23T05:00:52.324Z,10.90
2017-12-23T05:03:20.479Z,9.77
2017-12-23T05:05:48.703Z,10.00
2017-12-23T05:08:16.864Z,9.40
2017-12-23T05:10:45.011Z,9.57
2017-12-23T05:13:13.169Z,9.50
2017-12-23T05:15:42.111Z,9.20
2017-12-23T05:18:10.266Z,9.83
2017-12-23T05:20:38.429Z,9.33
2017-12-23T05:23:07.359Z,8.67
2017-12-23T05:25:35.561Z,9.70
2017-12-23T05:28:03.714Z,9.60
2017-12-23T05:30:31.897Z,9.53
2017-12-23T05:33:00.042Z,10.20
2017-12-23T05:35:28.212Z,9.93
2017-12-23T05:37:56.396Z,10.20
2017-12-23T05:40:24.614Z,9.97
2017-12-23T05:42:53.563Z,9.67
2017-12-23T05:45:21.747Z,8.80
2017-12-23T05:47:49.909Z,8.60
2017-12-23T05:50:18.076Z,9.67
2017-12-23T05:52:47.195Z,8.87
2017-12-23T05:55:15.359Z,9.93
2017-12-23T05:57:43.527Z,9.70
2017-12-23T06:00:11.673Z,9.40
2017-12-23T06:02:40.044Z,10.03
2017-12-23T06:05:08.980Z,10.63
2017-12-23T06:07:37.159Z,9.27
2017-12-23T06:10:05.327Z,8.67
2017-12-23T06:12:33.003Z,8.77
2017-12-23T06:15:01.162Z,9.33
2017-12-23T06:17:29.545Z,8.53
2017-12-23T06:19:57.908Z,10.20
2017-12-23T06:22:26.074Z,7.20
2017-12-23T06:24:54.239Z,8.73
2017-12-23T06:27:22.392Z,8.30
2017-12-23T06:29:51.597Z,8.93
2017-12-23T06:32:19.932Z,9.33
2017-12-23T06:34:48.090Z,8.80
2017-12-23T06:37:16.267Z,10.10
2017-12-23T06:39:44.449Z,8.17
2017-12-23T06:42:12.629Z,8.53
2017-12-23T06:44:40.786Z,8.90
2017-12-23T06:47:09.166Z,9.17
2017-12-23T06:49:37.320Z,9.17
2017-12-23T06:52:05.477Z,9.57
2017-12-23T06:54:33.622Z,8.13
2017-12-23T06:57:01.787Z,7.47
2017-12-23T06:59:30.014Z,8.27
2017-12-23T07:01:58.178Z,8.50
2017-12-23T07:04:26.326Z,8.73
2017-12-23T07:06:55.386Z,8.27
2017-12-23T07:09:23.542Z,8.73
2017-12-23T07:11:52.477Z,9.07
2017-12-23T07:14:20.626Z,9.73
2017-12-23T07:16:48.810Z,8.47
2017-12-23T07:19:17.122Z,8.67
2017-12-23T07:21:46.085Z,8.17
2017-12-23T07:24:15.093Z,8.37
2017-12-23T07:26:43.298Z,8.90
2017-12-23T07:29:11.442Z,8.43
2017-12-23T07:31:39.620Z,10.23
2017-12-23T07:34:07.803Z,8.80
2017-12-23T07:36:36.815Z,8.20
2017-12-23T07:39:04.858Z,10.73
2017-12-23T07:41:33.028Z,8.73
2017-12-23T07:44:01.178Z,8.73
2017-12-23T07:46:29.352Z,8.57
2017-12-23T07:48:57.714Z,8.53
2017-12-23T07:51:26.084Z,9.50
2017-12-23T07:53:54.229Z,9.93
2017-12-23T07:56:23.146Z,8.33
2017-12-23T07:58:51.538Z,9.60
2017-12-23T08:01:19.846Z,8.57
2017-12-23T08:03:48.040Z,9.63
2017-12-23T08:06:16.225Z,9.43
2017-12-23T08:08:45.168Z,10.03
2017-12-23T08:11:13.344Z,8.20
2017-12-23T08:13:41.640Z,12.97
2017-12-23T08:16:10.014Z,13.60
2017-12-23T08:18:38.191Z,16.60
2017-12-23T08:21:07.527Z,16.30
2017-12-23T08:23:36.476Z,16.13
2017-12-23T08:26:04.675Z,16.17
2017-12-23T08:28:33.052Z,14.87
2017-12-23T08:31:01.259Z,15.80
2017-12-23T08:33:30.200Z,16.10
2017-12-23T08:35:58.377Z,15.03
2017-12-23T08:38:26.729Z,15.03
2017-12-23T08:40:54.906Z,16.00
2017-12-23T08:43:23.177Z,15.37
2017-12-23T08:45:51.393Z,15.13
2017-12-23T08:48:19.571Z,15.23
2017-12-23T08:50:48.514Z,15.57
2017-12-23T08:53:16.676Z,17.13
2017-12-23T08:55:44.898Z,14.90
2017-12-23T08:58:13.088Z,15.43
2017-12-23T09:00:41.329Z,14.20
2017-12-23T09:03:09.532Z,13.90
2017-12-23T09:05:37.827Z,14.50
2017-12-23T09:08:06.017Z,13.97
2017-12-23T09:10:34.949Z,14.03
2017-12-23T09:15:38.721Z,12.10
2017-12-23T09:18:07.651Z,10.47
2017-12-23T09:20:35.865Z,10.90
2017-12-23T09:23:04.040Z,10.73
2017-12-23T09:25:32.205Z,9.97
2017-12-23T09:28:00.390Z,11.57
2017-12-23T09:30:28.587Z,10.80
2017-12-23T09:32:57.604Z,11.40
2017-12-23T09:35:25.774Z,10.07
2017-12-23T09:37:53.946Z,9.93
2017-12-23T09:40:22.952Z,8.80
2017-12-23T09:42:51.335Z,9.33
2017-12-23T09:45:19.495Z,9.23
2017-12-23T09:47:47.672Z,8.90
2017-12-23T09:50:15.822Z,8.87
2017-12-23T09:52:44.784Z,8.73
2017-12-23T09:55:13.190Z,9.30
2017-12-23T09:57:41.417Z,8.83
2017-12-23T10:00:09.734Z,8.23
2017-12-23T10:02:37.919Z,8.53
2017-12-23T10:05:06.088Z,7.53
2017-12-23T10:07:34.467Z,8.73
2017-12-23T10:10:02.624Z,7.20
2017-12-23T10:12:30.809Z,7.27
2017-12-23T10:14:59.203Z,6.53
2017-12-23T10:17:27.796Z,6.43
2017-12-23T10:19:56.755Z,7.67
2017-12-23T10:22:24.956Z,7.27
2017-12-23T10:24:53.128Z,6.63
2017-12-23T10:27:22.078Z,7.00
2017-12-23T10:29:50.409Z,6.53
2017-12-23T10:32:19.526Z,7.00
2017-12-23T10:34:48.147Z,6.23
2017-12-23T10:37:16.322Z,7.27
2017-12-23T10:39:56.669Z,6.57
2017-12-23T10:42:35.370Z,6.40
2017-12-23T10:45:15.582Z,7.50
2017-12-23T10:47:58.872Z,6.07
2017-12-23T10:50:39.573Z,7.10
2017-12-23T10:53:19.768Z,7.60
2017-12-23T10:55:47.938Z,7.50
2017-12-23T10:58:16.176Z,6.37
2017-12-23T11:00:44.379Z,7.33
2017-12-23T11:03:13.326Z,7.43
2017-12-23T11:05:41.530Z,7.83
2017-12-23T11:08:10.006Z,6.70
2017-12-23T11:10:38.239Z,7.97
2017-12-23T11:13:06.613Z,7.33
2017-12-23T11:15:34.857Z,8.30
2017-12-23T11:18:03.065Z,7.20
2017-12-23T11:20:31.219Z,6.23
2017-12-23T11:23:00.684Z,7.00
2017-12-23T11:25:29.351Z,6.13
2017-12-23T11:27:57.624Z,6.43
2017-12-23T11:30:25.874Z,6.07
2017-12-23T11:32:55.193Z,4.53
2017-12-23T11:35:23.363Z,4.70
2017-12-23T11:37:51.651Z,4.07
2017-12-23T11:40:20.004Z,4.07
2017-12-23T11:42:49.080Z,3.13
2017-12-23T11:45:17.284Z,2.63
2017-12-23T11:47:45.453Z,2.70
2017-12-23T11:50:14.490Z,3.30
2017-12-23T11:52:42.934Z,1.90
2017-12-23T11:55:11.138Z,2.73
2017-12-23T11:57:39.811Z,1.80
2017-12-23T12:00:07.954Z,2.10
2017-12-23T12:02:37.122Z,2.20
2017-12-23T12:05:05.284Z,2.77
2017-12-23T12:07:33.470Z,2.90
2017-12-23T12:10:01.666Z,2.50
2017-12-23T12:12:30.613Z,3.40
2017-12-23T12:14:59.064Z,3.23
2017-12-23T12:17:27.506Z,4.17
2017-12-23T12:19:55.667Z,2.67
2017-12-23T12:22:23.936Z,4.00
2017-12-23T12:24:52.438Z,2.83
2017-12-23T12:27:20.625Z,2.67
2017-12-23T12:29:49.894Z,3.10
2017-12-23T12:32:18.288Z,2.10
2017-12-23T12:34:47.943Z,2.87
2017-12-23T12:37:16.165Z,7.33
2017-12-23T12:39:44.540Z,2.60
2017-12-23T12:42:12.720Z,1.97
2017-12-23T12:44:40.881Z,2.67
2017-12-23T12:47:09.086Z,2.90
2017-12-23T12:49:37.447Z,2.53
2017-12-23T12:52:05.644Z,1.93
2017-12-23T12:54:33.894Z,2.10
2017-12-23T12:57:02.296Z,2.43
2017-12-23T12:59:30.455Z,2.77
2017-12-23T13:01:58.439Z,2.73
2017-12-23T13:04:26.692Z,2.00
2017-12-23T13:06:54.866Z,1.73
2017-12-23T13:09:23.041Z,2.23
2017-12-23T13:11:51.207Z,1.70
2017-12-23T13:14:19.463Z,2.37
2017-12-23T13:16:47.641Z,1.87
2017-12-23T13:19:15.795Z,2.07
2017-12-23T13:21:44.735Z,1.93
2017-12-23T13:24:13.260Z,2.90
2017-12-23T13:26:41.993Z,3.33
2017-12-23T13:29:10.257Z,2.73
2017-12-23T13:31:38.431Z,6.40
2017-12-23T13:34:06.600Z,2.90
2017-12-23T13:36:34.806Z,2.80
2017-12-23T13:39:02.926Z,3.13
2017-12-23T13:41:31.257Z,2.30
2017-12-23T13:43:59.433Z,2.57
2017-12-23T13:46:27.606Z,2.30
2017-12-23T13:48:56.005Z,2.63
2017-12-23T13:51:24.290Z,3.27
2017-12-23T13:53:52.457Z,3.30
2017-12-23T13:56:20.837Z,3.90
2017-12-23T13:58:50.675Z,2.97
2017-12-23T14:01:18.852Z,2.67
2017-12-23T14:03:47.798Z,3.30
2017-12-23T14:06:15.954Z,2.63
2017-12-23T14:08:44.208Z,2.87
2017-12-23T14:11:12.387Z,2.53
2017-12-23T14:13:41.328Z,2.83
2017-12-23T14:16:09.609Z,2.47
2017-12-23T14:18:37.921Z,3.03
2017-12-23T14:21:06.960Z,2.20
2017-12-23T14:23:35.160Z,2.97
2017-12-23T14:26:04.587Z,2.50
2017-12-23T14:28:33.624Z,2.57
2017-12-23T14:31:01.787Z,3.30
2017-12-23T14:33:29.949Z,3.07
2017-12-23T14:35:59.069Z,2.60
2017-12-23T14:38:28.771Z,3.10
2017-12-23T14:40:57.023Z,3.30
2017-12-23T14:43:25.959Z,3.47
2017-12-23T14:45:54.226Z,3.50
2017-12-23T14:48:22.325Z,21.60
2017-12-23T14:50:50.703Z,21.23
2017-12-23T14:53:18.919Z,11.10
2017-12-23T14:55:47.872Z,11.57
2017-12-23T14:58:16.649Z,12.10
2017-12-23T15:00:44.961Z,9.17
2017-12-23T15:03:13.471Z,7.57
2017-12-23T15:05:41.823Z,9.60
2017-12-23T15:08:10.107Z,8.20
2017-12-23T15:10:39.844Z,8.87
2017-12-23T15:13:08.881Z,7.27
2017-12-23T15:15:37.289Z,7.90
2017-12-23T15:18:05.610Z,7.67
2017-12-23T15:20:33.767Z,7.87
2017-12-23T15:23:02.930Z,7.13
2017-12-23T15:25:31.108Z,6.33
2017-12-23T15:27:59.355Z,4.43
2017-12-23T15:30:27.533Z,5.23
2017-12-23T15:32:55.666Z,5.93
2017-12-23T15:35:23.902Z,4.83
2017-12-23T15:37:54.647Z,4.60
2017-12-23T15:40:23.567Z,4.63
2017-12-23T15:42:51.860Z,4.90
2017-12-23T15:45:20.028Z,4.10
2017-12-23T15:47:48.368Z,4.23
2017-12-23T15:50:28.034Z,4.67
2017-12-23T15:52:56.906Z,5.70
2017-12-23T15:55:26.108Z,4.20
2017-12-23T15:57:54.579Z,4.40
2017-12-23T16:00:22.730Z,4.10
2017-12-23T16:02:50.948Z,3.63
2017-12-23T16:05:19.120Z,3.70
2017-12-23T16:07:47.269Z,11.20
2017-12-23T16:10:15.695Z,11.03
2017-12-23T16:12:44.027Z,14.50
2017-12-23T16:15:12.196Z,13.07
2017-12-23T16:17:40.447Z,13.47
2017-12-23T16:20:08.622Z,11.37
2017-12-23T16:22:36.840Z,12.90
2017-12-23T16:25:05.415Z,13.03
2017-12-23T16:27:33.611Z,12.03
2017-12-23T16:30:02.113Z,12.40
2017-12-23T16:32:35.252Z,12.07
2017-12-23T16:35:03.430Z,12.57
2017-12-23T16:37:31.642Z,11.27
2017-12-23T16:40:00.603Z,11.50
2017-12-23T16:42:28.839Z,11.80
2017-12-23T16:44:57.133Z,12.17
2017-12-23T16:47:25.418Z,10.73
2017-12-23T16:49:53.633Z,13.03
2017-12-23T16:52:21.803Z,10.20
2017-12-23T16:54:49.982Z,9.70
2017-12-23T16:57:18.962Z,9.97
2017-12-23T16:59:47.758Z,9.43
2017-12-23T17:02:15.968Z,9.43
2017-12-23T17:04:44.318Z,11.73
2017-12-23T17:07:13.256Z,9.90
2017-12-23T17:09:41.402Z,9.10
2017-12-23T17:12:09.857Z,9.00
2017-12-23T17:14:38.022Z,9.83
2017-12-23T17:17:06.180Z,9.07
2017-12-23T17:19:34.340Z,11.37
2017-12-23T17:22:02.498Z,10.53
2017-12-23T17:24:30.665Z,9.13
2017-12-23T17:26:58.848Z,9.77
2017-12-23T17:29:38.830Z,9.03
2017-12-23T17:32:06.994Z,9.27
2017-12-23T17:34:36.178Z,10.00
2017-12-23T17:37:04.335Z,9.40
2017-12-23T17:39:32.505Z,8.73
2017-12-23T17:42:00.999Z,10.77
2017-12-23T17:44:29.226Z,10.50
2017-12-23T17:46:59.296Z,11.00
2017-12-23T17:49:27.778Z,8.57
2017-12-23T17:51:56.754Z,8.37
2017-12-23T17:54:25.134Z,8.03
2017-12-23T17:56:53.444Z,9.63
2017-12-23T17:59:21.836Z,9.47
2017-12-23T18:01:50.006Z,7.77
2017-12-23T18:04:18.231Z,9.53
2017-12-23T18:06:47.269Z,8.40
2017-12-23T18:09:15.484Z,9.33
2017-12-23T18:11:43.806Z,7.00
2017-12-23T18:14:12.084Z,7.33
2017-12-23T18:16:40.240Z,7.77
2017-12-23T18:19:09.171Z,8.23
2017-12-23T18:21:39.002Z,7.70
2017-12-23T18:24:07.376Z,7.23
2017-12-23T18:26:35.719Z,7.50
2017-12-23T18:29:03.948Z,8.23
2017-12-23T18:31:32.495Z,7.90
2017-12-23T18:34:00.652Z,7.30
2017-12-23T18:36:28.798Z,8.57
2017-12-23T18:38:57.878Z,12.87
2017-12-23T18:41:26.065Z,9.57
2017-12-23T18:43:55.108Z,9.87
2017-12-23T18:46:23.274Z,11.63
2017-12-23T18:48:51.439Z,10.87
2017-12-23T18:51:19.692Z,11.20
2017-12-23T18:53:48.610Z,10.40
2017-12-23T18:56:16.811Z,10.83
2017-12-23T18:58:44.973Z,10.70
2017-12-23T19:01:13.139Z,12.73
2017-12-23T19:03:41.763Z,15.13
2017-12-23T19:06:10.044Z,16.87
2017-12-23T19:08:38.211Z,18.00
2017-12-23T19:11:06.645Z,16.60
2017-12-23T19:13:34.809Z,18.13
2017-12-23T19:16:02.536Z,17.37
2017-12-23T19:18:30.710Z,17.20
2017-12-23T19:20:59.227Z,16.73
2017-12-23T19:23:27.476Z,18.10
2017-12-23T19:25:55.646Z,17.43
2017-12-23T19:28:23.809Z,17.33
2017-12-23T19:30:51.999Z,16.27
2017-12-23T19:33:20.171Z,18.03
2017-12-23T19:35:48.389Z,18.33
2017-12-23T19:38:16.669Z,17.63
2017-12-23T19:40:44.978Z,18.53
2017-12-23T19:43:13.629Z,17.63
2017-12-23T19:45:41.911Z,18.40
2017-12-23T19:48:10.341Z,17.43
2017-12-23T19:50:38.514Z,18.20
2017-12-23T19:53:06.670Z,18.33
2017-12-23T19:55:34.868Z,19.00
2017-12-23T19:58:03.918Z,19.27
2017-12-23T20:00:32.093Z,17.33
2017-12-23T20:03:00.555Z,20.27
2017-12-23T20:05:31.475Z,20.47
2017-12-23T20:08:00.453Z,20.60
2017-12-23T20:10:28.743Z,18.67
2017-12-23T20:12:58.555Z,20.10
2017-12-23T20:15:27.067Z,21.50
2017-12-23T20:17:55.257Z,23.13
2017-12-23T20:20:23.554Z,21.07
2017-12-23T20:22:51.827Z,21.07
2017-12-23T20:25:20.116Z,22.13
2017-12-23T20:27:48.411Z,20.97
2017-12-23T20:30:17.326Z,21.03
2017-12-23T20:32:45.510Z,22.87
2017-12-23T20:35:13.692Z,22.63
2017-12-23T20:37:41.947Z,21.80
2017-12-23T20:40:10.898Z,20.57
2017-12-23T20:42:39.134Z,21.33
2017-12-23T20:45:07.399Z,24.00
2017-12-23T20:47:36.091Z,24.13
2017-12-23T20:50:04.406Z,23.97
2017-12-23T20:52:32.571Z,24.43
2017-12-23T20:55:00.746Z,23.73
2017-12-23T20:57:28.933Z,23.23
2017-12-23T20:59:57.238Z,24.00
2017-12-23T21:02:26.154Z,23.50
2017-12-23T21:04:54.321Z,23.10
2017-12-23T21:07:23.250Z,23.63
2017-12-23T21:09:51.415Z,24.63
2017-12-23T21:12:19.647Z,23.67
2017-12-23T21:14:48.779Z,22.80
2017-12-23T21:17:17.175Z,23.33
2017-12-23T21:19:45.431Z,22.03
2017-12-23T21:22:13.755Z,24.50
2017-12-23T21:24:41.908Z,22.93
2017-12-23T21:27:10.151Z,23.70
2017-12-23T21:29:38.504Z,24.90
2017-12-23T21:32:07.821Z,23.17
2017-12-23T21:34:35.995Z,23.07
2017-12-23T21:37:04.930Z,21.93
2017-12-23T21:39:33.090Z,21.73
2017-12-23T21:42:01.267Z,22.33
2017-12-23T21:44:29.418Z,23.57
2017-12-23T21:46:58.097Z,22.77
2017-12-23T21:49:26.298Z,22.90
2017-12-23T21:51:54.490Z,21.77
2017-12-23T21:54:22.651Z,23.03
2017-12-23T21:56:50.834Z,20.80
2017-12-23T21:59:19.008Z,21.27
2017-12-23T22:01:47.192Z,21.23
2017-12-23T22:04:15.364Z,21.80
2017-12-23T22:06:43.931Z,22.30
2017-12-23T22:09:12.083Z,21.03
2017-12-23T22:11:40.247Z,22.27
2017-12-23T22:14:09.199Z,20.73
2017-12-23T22:16:37.357Z,21.40
2017-12-23T22:19:05.645Z,21.37
2017-12-23T22:21:33.977Z,21.23
2017-12-23T22:24:02.199Z,20.37
2017-12-23T22:26:30.400Z,21.77
2017-12-23T22:28:58.680Z,21.87
2017-12-23T22:31:27.607Z,21.03
2017-12-23T22:33:55.830Z,21.40
2017-12-23T22:36:24.019Z,20.20
2017-12-23T22:38:52.220Z,23.43
2017-12-23T22:41:20.631Z,20.47
2017-12-23T22:43:49.227Z,21.10
2017-12-23T22:46:17.417Z,23.10
2017-12-23T22:48:45.596Z,23.10
2017-12-23T22:51:13.828Z,22.97
2017-12-23T22:53:42.240Z,20.57
2017-12-23T22:56:10.563Z,20.17
2017-12-23T22:58:38.827Z,19.80
2017-12-23T23:01:06.995Z,21.10
2017-12-23T23:03:35.986Z,20.83
2017-12-23T23:06:04.134Z,22.47
2017-12-23T23:08:32.430Z,20.67
2017-12-23T23:11:00.775Z,20.10
2017-12-23T23:13:29.198Z,20.90
2017-12-23T23:15:58.437Z,19.10
2017-12-23T23:18:26.766Z,19.30
2017-12-23T23:20:54.942Z,20.60
2017-12-23T23:23:23.119Z,19.00
2017-12-23T23:25:52.162Z,19.97
2017-12-23T23:28:20.533Z,20.00
2017-12-23T23:30:49.034Z,18.47
2017-12-23T23:33:17.246Z,19.90
2017-12-23T23:35:45.511Z,19.47
2017-12-23T23:38:13.668Z,20.60
2017-12-23T23:40:41.844Z,18.80
2017-12-23T23:43:10.130Z,19.70
2017-12-23T23:45:38.325Z,20.13
2017-12-23T23:48:07.466Z,20.57
2017-12-23T23:50:35.752Z,18.73
2017-12-23T23:53:03.974Z,20.10
2017-12-23T23:55:32.399Z,18.07
2017-12-23T23:58:00.686Z,19.10
